Andover, Massachusetts
Current Conditions -  °F | °C
As of 7:54 PM on Wednesday 22 Oct 2014 (Local Time) from KLWM Reporting Station
Light Rain Light Rain  
Wind Chill: 50°   Ceiling: 900
Heat Index: 50°   Visibility: 4mi
Dew Point: 47°   Wind: 35mph
Humidity: 89%   Direction: 40°NE
Pressure: 29.91"   Gusts: 48mph
Location:  42.65°N, 71.14°W
Report Text: KLWM 222354Z 04030G42KT 4SM -RA BR OVC009 10/08 A2991 RMK AO2 PK WND 04042/2354 CIG 007V014 SLP130 P0002 60016 T01000083 10106 20089 56016
Loading
Personal Weather Stations






























Interactive Weather Map
Tropical Storm Tracking
New forecast layout! Learn more

10-Day Weather Forecast

Advertisements
Track Severe Weather on mobile